createdAt,value
2023-03-15T00:01:18.960Z,99181.41
2023-03-15T00:03:49.382Z,99185.42
2023-03-15T00:06:24.170Z,99177.61
2023-03-15T00:08:54.888Z,99168.99
2023-03-15T00:11:31.163Z,99168.94
2023-03-15T00:14:02.913Z,99159.23
2023-03-15T00:16:33.176Z,99153.89
2023-03-15T00:19:03.843Z,99158.06
2023-03-15T00:21:33.159Z,99153.86
2023-03-15T00:24:02.134Z,99150.12
2023-03-15T00:26:31.882Z,99142.98
2023-03-15T00:29:01.733Z,99137.01
2023-03-15T00:31:36.332Z,99140.05
2023-03-15T00:34:04.918Z,99141.79
2023-03-15T00:36:33.416Z,99142.50
2023-03-15T00:39:03.808Z,99142.43
2023-03-15T00:41:32.694Z,99146.20
2023-03-15T00:44:06.725Z,99140.33
2023-03-15T00:46:38.343Z,99145.24
2023-03-15T00:49:06.965Z,99142.23
2023-03-15T00:51:39.112Z,99145.70
2023-03-15T00:54:11.504Z,99134.80
2023-03-15T00:56:41.515Z,99141.27
2023-03-15T00:59:13.713Z,99138.33
2023-03-15T01:01:45.323Z,99136.33
2023-03-15T01:04:14.740Z,99133.61
2023-03-15T01:06:44.665Z,99132.91
2023-03-15T01:09:15.199Z,99129.77
2023-03-15T01:11:45.357Z,99131.73
2023-03-15T01:14:16.674Z,99136.67
2023-03-15T01:16:51.707Z,99134.04
2023-03-15T01:19:20.948Z,99135.64
2023-03-15T01:21:50.461Z,99138.23
2023-03-15T01:24:18.984Z,99137.82
2023-03-15T01:26:47.936Z,99143.07
2023-03-15T01:29:24.864Z,99140.23
2023-03-15T01:31:53.983Z,99144.27
2023-03-15T01:34:23.109Z,99140.48
2023-03-15T01:37:01.184Z,99147.85
2023-03-15T01:39:36.772Z,99142.69
2023-03-15T01:42:12.317Z,99139.02
2023-03-15T01:45:00.333Z,99130.72
2023-03-15T01:47:33.523Z,99130.58
2023-03-15T01:50:10.296Z,99139.08
2023-03-15T01:52:39.799Z,99139.92
2023-03-15T01:55:11.640Z,99145.13
2023-03-15T01:57:49.740Z,99151.29
2023-03-15T02:00:23.286Z,99152.70
2023-03-15T02:03:26.887Z,99155.06
2023-03-15T02:06:07.605Z,99149.56
2023-03-15T02:08:50.903Z,99150.83
2023-03-15T02:11:21.090Z,99151.29
2023-03-15T02:13:55.525Z,99145.17
2023-03-15T02:16:30.752Z,99145.33
2023-03-15T02:19:01.651Z,99142.08
2023-03-15T02:21:47.086Z,99140.00
2023-03-15T02:24:18.976Z,99138.37
2023-03-15T02:26:58.893Z,99141.89
2023-03-15T02:29:28.629Z,99147.14
2023-03-15T02:32:11.116Z,99142.35
2023-03-15T02:34:41.516Z,99140.84
2023-03-15T02:37:12.701Z,99140.75
2023-03-15T02:39:43.302Z,99138.73
2023-03-15T02:42:14.550Z,99136.37
2023-03-15T02:44:44.435Z,99130.48
2023-03-15T02:47:37.734Z,99131.90
2023-03-15T02:50:08.577Z,99123.61
2023-03-15T02:52:38.272Z,99120.25
2023-03-15T02:55:15.057Z,99116.67
2023-03-15T02:57:59.034Z,99112.70
2023-03-15T03:04:01.303Z,99113.37
2023-03-15T03:06:28.442Z,99110.60
2023-03-15T03:09:03.993Z,99109.09
2023-03-15T03:11:31.679Z,99105.10
2023-03-15T03:14:01.462Z,99102.61
2023-03-15T03:16:28.651Z,99105.17
2023-03-15T03:18:56.408Z,99103.02
2023-03-15T03:21:27.349Z,99105.08
2023-03-15T03:23:55.172Z,99107.56
2023-03-15T03:26:27.459Z,99101.18
2023-03-15T03:28:56.253Z,99105.02
2023-03-15T03:31:26.819Z,99109.30
2023-03-15T03:34:01.797Z,99109.17
2023-03-15T03:36:30.534Z,99110.21
2023-03-15T03:38:59.265Z,99111.14
2023-03-15T03:49:06.671Z,99110.67
2023-03-15T03:51:36.656Z,99112.15
2023-03-15T03:54:05.683Z,99113.84
2023-03-15T03:56:34.351Z,99115.77
2023-03-15T03:59:02.985Z,99115.13
2023-03-15T04:01:43.823Z,99111.61
2023-03-15T04:04:14.535Z,99115.10
2023-03-15T04:06:46.065Z,99113.31
2023-03-15T04:09:16.897Z,99112.79
2023-03-15T04:11:52.804Z,99111.77
2023-03-15T04:14:24.768Z,99109.98
2023-03-15T04:16:55.136Z,99111.30
2023-03-15T04:19:31.590Z,99114.77
2023-03-15T04:22:06.747Z,99124.42
2023-03-15T04:25:02.277Z,99121.90
2023-03-15T04:28:00.227Z,99117.77
2023-03-15T04:30:44.990Z,99115.95
2023-03-15T04:33:29.010Z,99116.38
2023-03-15T04:36:33.636Z,99119.55
2023-03-15T04:39:06.133Z,99123.48
2023-03-15T04:41:48.505Z,99119.02
2023-03-15T04:44:30.957Z,99118.29
2023-03-15T04:47:22.950Z,99115.98
2023-03-15T04:50:07.223Z,99121.45
2023-03-15T04:52:53.202Z,99128.96
2023-03-15T04:55:45.053Z,99129.82
2023-03-15T04:58:20.040Z,99133.05
2023-03-15T05:01:04.730Z,99134.33
2023-03-15T05:04:07.066Z,99131.61
2023-03-15T05:06:56.088Z,99144.50
2023-03-15T05:09:41.295Z,99141.64
2023-03-15T05:12:13.780Z,99133.05
2023-03-15T05:15:03.290Z,99129.05
2023-03-15T05:17:57.661Z,99133.50
2023-03-15T05:20:51.497Z,99146.05
2023-03-15T05:23:41.675Z,99136.52
2023-03-15T05:26:35.956Z,99144.79
2023-03-15T05:29:27.579Z,99149.14
2023-03-15T05:32:31.723Z,99147.43
2023-03-15T05:35:31.757Z,99148.10
2023-03-15T05:38:15.508Z,99152.95
2023-03-15T05:41:02.663Z,99148.73
2023-03-15T05:43:52.073Z,99150.80
2023-03-15T05:46:22.978Z,99141.46
2023-03-15T05:49:01.084Z,99146.52
2023-03-15T05:51:57.629Z,99151.38
2023-03-15T05:54:37.286Z,99148.77
2023-03-15T05:57:27.061Z,99141.27
2023-03-15T06:00:20.747Z,99135.52
2023-03-15T06:02:53.213Z,99136.91
2023-03-15T06:05:38.256Z,99144.83
2023-03-15T06:08:10.073Z,99132.38
2023-03-15T06:10:45.061Z,99135.31
2023-03-15T06:13:17.862Z,99135.83
2023-03-15T06:15:48.653Z,99143.16
2023-03-15T06:18:19.556Z,99143.83
2023-03-15T06:20:50.845Z,99142.85
2023-03-15T06:23:26.735Z,99148.75
2023-03-15T06:25:58.568Z,99148.73
2023-03-15T06:28:29.049Z,99147.95
2023-03-15T06:31:08.769Z,99151.54
2023-03-15T06:33:42.229Z,99146.66
2023-03-15T06:36:12.699Z,99136.51
2023-03-15T06:38:44.236Z,99126.64
2023-03-15T06:41:15.507Z,99136.41
2023-03-15T06:43:53.167Z,99121.55
2023-03-15T06:46:21.892Z,99120.95
2023-03-15T06:48:53.314Z,99121.39
2023-03-15T06:51:24.654Z,99129.33
2023-03-15T06:53:58.368Z,99127.96
2023-03-15T06:56:28.633Z,99122.38
2023-03-15T06:58:58.097Z,99119.85
2023-03-15T07:01:27.701Z,99116.04
2023-03-15T07:11:51.270Z,99110.98
2023-03-15T07:14:20.307Z,99110.98
2023-03-15T07:16:48.744Z,99114.09
2023-03-15T07:19:16.316Z,99119.19
2023-03-15T07:21:47.895Z,99116.81
2023-03-15T07:24:16.002Z,99117.21
2023-03-15T07:26:59.828Z,99116.38
2023-03-15T07:29:32.282Z,99119.85
2023-03-15T07:32:05.533Z,99118.98
2023-03-15T07:34:34.422Z,99113.94
2023-03-15T07:37:02.424Z,99119.63
2023-03-15T07:39:33.390Z,99112.51
2023-03-15T07:42:07.946Z,99110.18
2023-03-15T07:44:44.450Z,99104.39
2023-03-15T07:47:20.280Z,99107.00
2023-03-15T07:49:49.008Z,99109.10
2023-03-15T07:52:17.787Z,99105.52
2023-03-15T07:54:49.578Z,99106.67
2023-03-15T07:57:18.809Z,99106.90
2023-03-15T07:59:49.616Z,99098.27
2023-03-15T08:02:17.904Z,99100.72
2023-03-15T08:04:46.452Z,99100.45
2023-03-15T08:07:18.239Z,99110.90
2023-03-15T08:09:48.866Z,99102.23
2023-03-15T08:12:22.190Z,99108.84
2023-03-15T08:14:53.893Z,99107.22
2023-03-15T08:17:26.502Z,99094.91
2023-03-15T08:20:09.721Z,99096.30
2023-03-15T08:22:47.094Z,99086.77
2023-03-15T08:25:15.324Z,99081.90
2023-03-15T08:27:45.809Z,99079.71
2023-03-15T08:30:17.494Z,99080.93
2023-03-15T08:32:47.302Z,99081.98
2023-03-15T08:35:18.259Z,99092.02
2023-03-15T08:37:51.834Z,99092.65
2023-03-15T08:40:25.632Z,99092.38
2023-03-15T08:42:53.321Z,99086.27
2023-03-15T08:45:32.991Z,99084.20
2023-03-15T08:48:01.509Z,99083.01
2023-03-15T08:50:36.935Z,99076.58
2023-03-15T08:53:06.533Z,99079.58
2023-03-15T08:55:35.384Z,99071.42
2023-03-15T08:58:04.761Z,99071.95
2023-03-15T09:00:38.244Z,99072.65
2023-03-15T09:03:09.871Z,99070.30
2023-03-15T09:05:38.671Z,99081.08
2023-03-15T09:08:06.322Z,99071.79
2023-03-15T09:10:35.436Z,99075.84
2023-03-15T09:13:03.656Z,99067.95
2023-03-15T09:15:38.114Z,99059.05
2023-03-15T09:18:09.209Z,99072.09
2023-03-15T09:20:42.508Z,99074.40
2023-03-15T09:23:17.218Z,99073.13
2023-03-15T09:25:48.346Z,99056.77
2023-03-15T09:28:18.236Z,99054.36
2023-03-15T09:30:50.140Z,99042.98
2023-03-15T09:33:18.538Z,99044.83
2023-03-15T09:35:46.241Z,99040.82
2023-03-15T09:38:14.201Z,99041.48
2023-03-15T09:40:50.766Z,99045.63
2023-03-15T09:43:30.311Z,99043.42
2023-03-15T09:45:59.888Z,99038.56
2023-03-15T09:48:37.733Z,99035.22
2023-03-15T09:51:25.360Z,99053.20
2023-03-15T09:54:29.130Z,99051.21
2023-03-15T09:57:02.523Z,99044.00
2023-03-15T09:59:36.271Z,99038.96
2023-03-15T10:02:15.882Z,99039.58
2023-03-15T10:04:44.772Z,99028.87
2023-03-15T10:07:14.364Z,99026.11
2023-03-15T10:09:43.503Z,99031.94
2023-03-15T10:12:16.598Z,99033.52
2023-03-15T10:14:50.164Z,99028.08
2023-03-15T10:17:32.339Z,99024.90
2023-03-15T10:20:09.116Z,99027.15
2023-03-15T10:22:59.056Z,99030.96
2023-03-15T10:25:29.144Z,99019.79
2023-03-15T10:28:20.562Z,99023.23
2023-03-15T10:30:52.121Z,99015.18
2023-03-15T10:33:22.042Z,99003.17
2023-03-15T10:35:49.050Z,99004.32
2023-03-15T10:38:17.554Z,99003.36
2023-03-15T10:40:46.107Z,99015.13
2023-03-15T10:43:25.222Z,99015.54
2023-03-15T10:45:59.997Z,99011.38
2023-03-15T10:48:28.218Z,99019.95
2023-03-15T10:51:06.207Z,99019.42
2023-03-15T10:53:33.711Z,99023.13
2023-03-15T10:56:05.530Z,99020.10
2023-03-15T10:58:42.008Z,99026.52
2023-03-15T11:01:14.907Z,99012.68
2023-03-15T11:03:43.480Z,99005.81
2023-03-15T11:06:21.231Z,99011.38
2023-03-15T11:09:06.951Z,99011.06
2023-03-15T11:11:55.792Z,99012.44
2023-03-15T11:14:28.596Z,99023.48
2023-03-15T11:16:57.495Z,99015.82
2023-03-15T11:19:27.971Z,99015.89
2023-03-15T11:21:55.890Z,99009.27
2023-03-15T11:24:29.299Z,99025.20
2023-03-15T11:26:58.044Z,99015.77
2023-03-15T11:29:36.610Z,99021.10
2023-03-15T11:32:11.831Z,99019.25
2023-03-15T11:34:44.482Z,99021.52
2023-03-15T11:37:15.847Z,99018.23
2023-03-15T11:39:58.802Z,99025.66
2023-03-15T11:42:39.556Z,99014.52
2023-03-15T11:45:33.600Z,99023.40
2023-03-15T11:48:34.393Z,99025.57
2023-03-15T11:51:04.409Z,99016.89
2023-03-15T11:53:40.048Z,99013.92
2023-03-15T11:56:36.280Z,99025.70
2023-03-15T11:59:15.135Z,99029.91
2023-03-15T12:01:49.045Z,99024.32
2023-03-15T12:04:27.358Z,99016.05
2023-03-15T12:07:03.469Z,99020.73
2023-03-15T12:09:40.502Z,99012.95
2023-03-15T12:12:25.974Z,99003.89
2023-03-15T12:15:28.783Z,99002.08
2023-03-15T12:17:59.601Z,99005.01
2023-03-15T12:20:47.160Z,98988.86
2023-03-15T12:23:39.434Z,98983.38
2023-03-15T12:26:10.742Z,98990.66
2023-03-15T12:28:39.334Z,98989.70
2023-03-15T12:31:15.244Z,98995.06
2023-03-15T12:33:52.730Z,98987.96
2023-03-15T12:36:43.539Z,98990.48
2023-03-15T12:39:37.254Z,98997.13
2023-03-15T12:42:04.722Z,98999.06
2023-03-15T12:44:43.164Z,99006.61
2023-03-15T12:47:14.203Z,99013.77
2023-03-15T12:49:44.172Z,99013.18
2023-03-15T12:52:11.197Z,99007.21
2023-03-15T12:54:42.825Z,99006.67
2023-03-15T12:57:11.127Z,99002.74
2023-03-15T12:59:49.410Z,98998.79
2023-03-15T13:02:41.764Z,98999.25
2023-03-15T13:05:23.807Z,99001.59
2023-03-15T13:08:20.008Z,99001.35
2023-03-15T13:10:56.761Z,98996.80
2023-03-15T13:13:46.529Z,98995.52
2023-03-15T13:16:32.811Z,99009.39
2023-03-15T13:19:15.706Z,99015.09
2023-03-15T13:22:03.925Z,99020.95
2023-03-15T13:24:36.650Z,99007.88
2023-03-15T13:27:11.204Z,99016.52
2023-03-15T13:29:40.952Z,99025.32
2023-03-15T13:32:14.583Z,99023.13
2023-03-15T13:34:47.975Z,99027.30
2023-03-15T13:37:41.558Z,99024.45
2023-03-15T13:40:13.951Z,99031.63
2023-03-15T13:42:55.701Z,99025.48
2023-03-15T13:45:26.650Z,99024.77
2023-03-15T13:48:02.511Z,99024.77
2023-03-15T13:50:30.970Z,99030.78
2023-03-15T13:53:00.706Z,99028.33
2023-03-15T13:55:33.008Z,99025.10
2023-03-15T13:58:07.892Z,99023.85
2023-03-15T14:00:37.552Z,99017.71
2023-03-15T14:03:09.197Z,99006.09
2023-03-15T14:05:51.185Z,99008.92
2023-03-15T14:08:23.754Z,99001.40
2023-03-15T14:10:57.746Z,98994.96
2023-03-15T14:13:29.234Z,99001.20
2023-03-15T14:15:59.621Z,98995.88
2023-03-15T14:18:32.414Z,98997.86
2023-03-15T14:21:01.511Z,99003.14
2023-03-15T14:23:30.294Z,99003.30
2023-03-15T14:26:23.481Z,99002.17
2023-03-15T14:29:13.394Z,98995.39
2023-03-15T14:31:48.919Z,99001.82
2023-03-15T14:34:23.393Z,98997.05
2023-03-15T14:36:53.490Z,99003.76
2023-03-15T14:39:29.768Z,99004.79
2023-03-15T14:41:58.329Z,99003.26
2023-03-15T14:44:26.912Z,99000.66
2023-03-15T14:46:55.511Z,99001.45
2023-03-15T14:49:23.739Z,98999.13
2023-03-15T14:52:04.440Z,98998.36
2023-03-15T14:54:36.156Z,99004.03
2023-03-15T14:57:03.913Z,98999.88
2023-03-15T14:59:32.426Z,99008.45
2023-03-15T15:02:00.634Z,99009.15
2023-03-15T15:04:31.119Z,99007.38
2023-03-15T15:07:11.073Z,99011.48
2023-03-15T15:09:43.372Z,99006.98
2023-03-15T15:12:11.745Z,99009.62
2023-03-15T15:14:43.781Z,99005.64
2023-03-15T15:17:11.636Z,99003.06
2023-03-15T15:19:40.147Z,99007.45
2023-03-15T15:22:10.318Z,99009.96
2023-03-15T15:24:40.745Z,99012.06
2023-03-15T15:27:10.116Z,99010.88
2023-03-15T15:29:38.388Z,99007.27
2023-03-15T15:32:05.883Z,99014.89
2023-03-15T15:34:33.956Z,99014.96
2023-03-15T15:37:02.056Z,99012.98
2023-03-15T15:39:29.916Z,99013.27
2023-03-15T15:42:02.577Z,99018.01
2023-03-15T15:44:37.537Z,99022.63
2023-03-15T15:47:04.551Z,99020.09
2023-03-15T15:49:32.757Z,99020.33
2023-03-15T15:52:03.763Z,99028.19
2023-03-15T15:54:35.402Z,99028.86
2023-03-15T15:57:09.540Z,99026.17
2023-03-15T15:59:37.813Z,99031.08
2023-03-15T16:02:12.591Z,99033.05
2023-03-15T16:04:42.594Z,99031.33
2023-03-15T16:07:10.341Z,99026.95
2023-03-15T16:09:41.053Z,99035.58
2023-03-15T16:12:17.156Z,99030.45
2023-03-15T16:14:46.370Z,99029.77
2023-03-15T16:17:18.717Z,99027.81
2023-03-15T16:19:49.876Z,99028.04
2023-03-15T16:22:21.796Z,99038.90
2023-03-15T16:25:01.729Z,99031.93
2023-03-15T16:27:30.214Z,99027.83
2023-03-15T16:29:59.468Z,99023.85
2023-03-15T16:32:41.421Z,99026.59
2023-03-15T16:41:29.931Z,99029.05
2023-03-15T16:44:01.712Z,99024.02
2023-03-15T16:46:37.705Z,99030.07
2023-03-15T16:49:08.821Z,99029.84
2023-03-15T16:51:39.792Z,99028.12
2023-03-15T16:54:27.196Z,99033.77
2023-03-15T16:57:06.857Z,99038.98
2023-03-15T16:59:35.922Z,99032.83
2023-03-15T17:02:07.817Z,99033.57
2023-03-15T17:04:36.187Z,99040.43
2023-03-15T17:07:07.168Z,99035.37
2023-03-15T17:09:35.717Z,99031.96
2023-03-15T17:12:14.414Z,99033.22
2023-03-15T17:14:54.727Z,99028.42
2023-03-15T17:17:24.872Z,99025.03
2023-03-15T17:19:56.124Z,99031.13
2023-03-15T17:22:32.808Z,99026.58
2023-03-15T17:25:04.524Z,99030.80
2023-03-15T17:28:01.335Z,99028.98
2023-03-15T17:30:35.192Z,99031.77
2023-03-15T17:33:10.487Z,99025.94
2023-03-15T17:35:49.595Z,99030.39
2023-03-15T17:38:19.713Z,99032.73
2023-03-15T17:40:53.998Z,99027.41
2023-03-15T17:43:25.886Z,99030.88
2023-03-15T17:45:59.212Z,99037.77
2023-03-15T17:48:28.045Z,99035.61
2023-03-15T17:51:00.497Z,99045.13
2023-03-15T17:53:31.228Z,99043.36
2023-03-15T17:56:03.689Z,99044.65
2023-03-15T17:58:35.277Z,99048.38
2023-03-15T18:01:10.436Z,99051.71
2023-03-15T18:03:51.949Z,99055.46
2023-03-15T18:06:21.807Z,99059.55
2023-03-15T18:09:02.787Z,99057.86
2023-03-15T18:11:40.558Z,99058.68
2023-03-15T18:14:11.738Z,99058.04
2023-03-15T18:16:57.200Z,99059.39
2023-03-15T18:19:27.282Z,99059.21
2023-03-15T18:21:57.735Z,99053.70
2023-03-15T18:24:30.367Z,99054.18
2023-03-15T18:27:01.066Z,99055.58
2023-03-15T18:29:37.000Z,99060.45
2023-03-15T18:32:08.490Z,99060.70
2023-03-15T18:34:37.025Z,99059.56
2023-03-15T18:37:07.499Z,99056.36
2023-03-15T18:39:39.982Z,99059.23
2023-03-15T18:42:13.210Z,99058.61
2023-03-15T18:44:44.735Z,99055.81
2023-03-15T18:47:15.939Z,99057.73
2023-03-15T18:49:49.504Z,99060.09
2023-03-15T18:52:24.857Z,99063.98
2023-03-15T18:54:55.481Z,99058.63
2023-03-15T18:57:24.224Z,99062.70
2023-03-15T18:59:55.466Z,99063.13
2023-03-15T19:02:25.823Z,99067.84
2023-03-15T19:04:58.898Z,99071.66
2023-03-15T19:07:30.165Z,99071.26
2023-03-15T19:10:03.262Z,99072.44
2023-03-15T19:12:39.008Z,99067.10
2023-03-15T19:15:17.209Z,99067.14
2023-03-15T19:17:48.176Z,99072.22
2023-03-15T19:20:23.165Z,99072.41
2023-03-15T19:23:00.436Z,99073.89
2023-03-15T19:25:29.159Z,99072.21
2023-03-15T19:28:11.076Z,99070.66
2023-03-15T19:30:54.085Z,99071.48
2023-03-15T19:33:25.246Z,99072.34
2023-03-15T19:35:57.708Z,99069.88
2023-03-15T19:38:26.283Z,99071.91
2023-03-15T19:40:58.784Z,99072.20
2023-03-15T19:43:27.439Z,99067.23
2023-03-15T19:45:56.184Z,99068.56
2023-03-15T19:48:25.119Z,99070.31
2023-03-15T19:50:56.202Z,99070.73
2023-03-15T19:53:26.949Z,99066.36
2023-03-15T19:55:59.387Z,99066.89
2023-03-15T19:58:30.968Z,99067.70
2023-03-15T20:01:04.573Z,99070.63
2023-03-15T20:03:35.241Z,99068.58
2023-03-15T20:06:07.479Z,99066.79
2023-03-15T20:08:40.456Z,99066.61
2023-03-15T20:11:09.022Z,99066.23
2023-03-15T20:13:42.109Z,99065.30
2023-03-15T20:16:11.926Z,99064.06
2023-03-15T20:18:46.333Z,99058.61
2023-03-15T20:21:16.943Z,99059.13
2023-03-15T20:23:57.339Z,99061.80
2023-03-15T20:26:30.466Z,99058.75
2023-03-15T20:29:03.825Z,99060.73
2023-03-15T20:31:34.366Z,99062.38
2023-03-15T20:34:06.100Z,99062.23
2023-03-15T20:36:37.922Z,99057.53
2023-03-15T20:39:06.470Z,99048.41
2023-03-15T20:41:43.336Z,99048.87
2023-03-15T20:44:16.500Z,99047.21
2023-03-15T20:46:48.366Z,99052.96
2023-03-15T20:49:22.304Z,99050.29
2023-03-15T20:51:55.578Z,99045.05
2023-03-15T20:54:26.505Z,99050.52
2023-03-15T20:56:54.780Z,99043.23
2023-03-15T20:59:33.837Z,99038.52
2023-03-15T21:02:04.063Z,99035.73
2023-03-15T21:04:34.282Z,99038.09
2023-03-15T21:07:07.506Z,99039.73
2023-03-15T21:09:39.762Z,99037.71
2023-03-15T21:12:21.613Z,99035.00
2023-03-15T21:14:52.790Z,99037.96
2023-03-15T21:17:24.170Z,99035.44
2023-03-15T21:19:53.272Z,99038.23
2023-03-15T21:22:37.408Z,99031.77
2023-03-15T21:25:10.060Z,99031.45
2023-03-15T21:27:41.633Z,99033.30
2023-03-15T21:30:23.030Z,99034.26
2023-03-15T21:32:53.528Z,99035.75
2023-03-15T21:35:24.331Z,99036.86
2023-03-15T21:37:54.993Z,99036.58
2023-03-15T21:40:23.843Z,99040.71
2023-03-15T21:42:53.693Z,99040.92
2023-03-15T21:45:23.362Z,99045.30
2023-03-15T21:47:56.876Z,99048.77
2023-03-15T21:52:08.210Z,99045.95
2023-03-15T21:54:39.007Z,99047.71
2023-03-15T21:57:09.429Z,99051.73
2023-03-15T21:59:40.585Z,99053.89
2023-03-15T22:02:11.114Z,99054.18
2023-03-15T22:04:46.627Z,99054.06
2023-03-15T22:07:15.701Z,99049.45
2023-03-15T22:09:46.437Z,99050.36
2023-03-15T22:12:21.137Z,99050.69
2023-03-15T22:20:18.667Z,99040.27
2023-03-15T22:22:49.404Z,99041.08
2023-03-15T22:25:19.069Z,99032.77
2023-03-15T22:27:49.114Z,99035.20
2023-03-15T22:30:19.022Z,99037.51
2023-03-15T22:32:51.169Z,99037.39
2023-03-15T22:35:21.065Z,99035.56
2023-03-15T22:37:51.340Z,99039.36
2023-03-15T22:40:31.761Z,99039.27
2023-03-15T22:43:00.445Z,99037.82
2023-03-15T22:45:31.068Z,99048.06
2023-03-15T22:48:01.271Z,99047.52
2023-03-15T22:50:38.423Z,99043.60
2023-03-15T22:53:07.301Z,99038.00
2023-03-15T22:55:38.217Z,99035.95
2023-03-15T22:58:07.429Z,99037.52
2023-03-15T23:00:37.043Z,99036.96
2023-03-15T23:03:05.425Z,99041.38
2023-03-15T23:05:35.183Z,99040.96
2023-03-15T23:08:05.634Z,99040.93
2023-03-15T23:10:36.076Z,99046.38
2023-03-15T23:13:06.272Z,99048.45
2023-03-15T23:15:40.282Z,99052.36
2023-03-15T23:18:10.912Z,99053.65
2023-03-15T23:20:41.787Z,99055.60
2023-03-15T23:23:15.663Z,99050.90
2023-03-15T23:25:46.180Z,99049.46
2023-03-15T23:28:17.427Z,99048.71
2023-03-15T23:30:47.363Z,99048.60
2023-03-15T23:33:17.938Z,99044.56
2023-03-15T23:35:47.537Z,99044.11
2023-03-15T23:38:15.967Z,99037.66
2023-03-15T23:40:44.970Z,99035.36
2023-03-15T23:43:13.495Z,99031.17
2023-03-15T23:45:41.740Z,99033.86
2023-03-15T23:48:13.271Z,99030.11
2023-03-15T23:50:44.468Z,99029.75
2023-03-15T23:53:16.990Z,99034.11
2023-03-15T23:55:46.905Z,99028.95
2023-03-15T23:58:18.518Z,99028.76
